createdAt,value
2016-12-31T00:00:39.411Z,1024.24
2016-12-31T00:01:39.766Z,1024.23
2016-12-31T00:02:39.503Z,1024.23
2016-12-31T00:03:39.501Z,1024.21
2016-12-31T00:04:39.792Z,1024.25
2016-12-31T00:05:39.438Z,1024.23
2016-12-31T00:06:39.508Z,1024.23
2016-12-31T00:07:39.380Z,1024.2
2016-12-31T00:08:39.342Z,1024.18
2016-12-31T00:09:39.422Z,1024.16
2016-12-31T00:10:39.398Z,1024.2
2016-12-31T00:11:39.522Z,1024.15
2016-12-31T00:12:39.706Z,1024.13
2016-12-31T00:13:39.451Z,1024.1
2016-12-31T00:14:39.518Z,1024.11
2016-12-31T00:15:39.490Z,1024.15
2016-12-31T00:16:39.430Z,1024.13
2016-12-31T00:17:39.453Z,1024.12
2016-12-31T00:18:39.444Z,1024.14
2016-12-31T00:19:39.422Z,1024.13
2016-12-31T00:20:39.562Z,1024.15
2016-12-31T00:21:39.540Z,1024.16
2016-12-31T00:22:39.698Z,1024.11
2016-12-31T00:23:39.794Z,1024.08
2016-12-31T00:24:39.670Z,1024.05
2016-12-31T00:25:39.566Z,1024.1
2016-12-31T00:26:39.665Z,1024.11
2016-12-31T00:27:39.702Z,1024.08
2016-12-31T00:28:39.545Z,1024.07
2016-12-31T00:29:39.727Z,1024.09
2016-12-31T00:30:39.592Z,1024.1
2016-12-31T00:31:39.727Z,1024.05
2016-12-31T00:32:39.718Z,1024.05
2016-12-31T00:33:39.628Z,1024.07
2016-12-31T00:34:40.094Z,1024.04
2016-12-31T00:35:39.647Z,1024.03
2016-12-31T00:36:39.734Z,1024.03
2016-12-31T00:37:39.717Z,1024.04
2016-12-31T00:38:39.930Z,1024.02
2016-12-31T00:39:39.633Z,1024.08
2016-12-31T00:40:39.689Z,1024.04
2016-12-31T00:41:39.613Z,1024.1
2016-12-31T00:42:40.255Z,1024.05
2016-12-31T00:43:39.751Z,1024
2016-12-31T00:44:39.941Z,1024.03
2016-12-31T00:45:39.904Z,1024.05
2016-12-31T00:46:39.744Z,1024.04
2016-12-31T00:47:40.072Z,1024.03
2016-12-31T00:48:39.814Z,1024.04
2016-12-31T00:49:39.817Z,1023.98
2016-12-31T00:50:39.980Z,1023.98
2016-12-31T00:51:39.832Z,1024.01
2016-12-31T00:52:39.860Z,1023.99
2016-12-31T00:53:40.069Z,1023.97
2016-12-31T00:54:40.281Z,1023.99
2016-12-31T00:55:39.876Z,1023.97
2016-12-31T00:56:40.156Z,1023.99
2016-12-31T00:57:40.125Z,1024.02
2016-12-31T00:58:39.987Z,1024.01
2016-12-31T00:59:39.981Z,1024.03
2016-12-31T01:00:39.980Z,1024
2016-12-31T01:01:39.869Z,1024.02
2016-12-31T01:02:40.187Z,1024.04
2016-12-31T01:03:40.073Z,1024.03
2016-12-31T01:04:39.939Z,1024.03
2016-12-31T01:05:40.288Z,1024.04
2016-12-31T01:06:39.957Z,1024.04
2016-12-31T01:07:40.419Z,1024.04
2016-12-31T01:08:39.990Z,1024.04
2016-12-31T01:09:39.989Z,1024.07
2016-12-31T01:10:40.050Z,1024.03
2016-12-31T01:11:40.029Z,1024.01
2016-12-31T01:12:39.990Z,1024
2016-12-31T01:13:40.145Z,1024.01
2016-12-31T01:14:40.023Z,1023.99
2016-12-31T01:15:40.221Z,1023.95
2016-12-31T01:16:40.109Z,1023.94
2016-12-31T01:17:40.093Z,1023.94
2016-12-31T01:18:40.280Z,1023.96
2016-12-31T01:19:40.121Z,1023.9
2016-12-31T01:20:40.119Z,1023.9
2016-12-31T01:21:40.343Z,1023.89
2016-12-31T01:22:40.099Z,1023.84
2016-12-31T01:23:40.097Z,1023.85
2016-12-31T01:24:40.185Z,1023.83
2016-12-31T01:25:40.145Z,1023.84
2016-12-31T01:26:40.124Z,1023.85
2016-12-31T01:27:40.108Z,1023.84
2016-12-31T01:28:40.200Z,1023.85
2016-12-31T01:29:40.405Z,1023.82
2016-12-31T01:30:40.572Z,1023.82
2016-12-31T01:31:40.230Z,1023.86
2016-12-31T01:32:40.156Z,1023.8
2016-12-31T01:33:40.722Z,1023.84
2016-12-31T01:34:40.587Z,1023.85
2016-12-31T01:35:40.567Z,1023.81
2016-12-31T01:36:40.307Z,1023.8
2016-12-31T01:37:40.416Z,1023.81
2016-12-31T01:38:40.396Z,1023.8
2016-12-31T01:39:40.487Z,1023.82
2016-12-31T01:40:40.279Z,1023.81
2016-12-31T01:41:40.269Z,1023.78
2016-12-31T01:42:40.386Z,1023.8
2016-12-31T01:43:40.317Z,1023.76
2016-12-31T01:44:40.355Z,1023.75
2016-12-31T01:45:40.412Z,1023.76
2016-12-31T01:46:40.348Z,1023.77
2016-12-31T01:47:40.465Z,1023.75
2016-12-31T01:48:40.405Z,1023.7
2016-12-31T01:49:40.494Z,1023.71
2016-12-31T01:50:40.466Z,1023.66
2016-12-31T01:51:40.606Z,1023.65
2016-12-31T01:52:40.657Z,1023.64
2016-12-31T01:53:40.380Z,1023.61
2016-12-31T01:54:40.435Z,1023.65
2016-12-31T01:55:40.364Z,1023.66
2016-12-31T01:56:40.697Z,1023.64
2016-12-31T01:57:40.808Z,1023.64
2016-12-31T01:58:40.399Z,1023.64
2016-12-31T01:59:40.685Z,1023.67
2016-12-31T02:00:40.461Z,1023.68
2016-12-31T02:01:40.697Z,1023.66
2016-12-31T02:02:40.540Z,1023.68
2016-12-31T02:03:40.474Z,1023.66
2016-12-31T02:04:40.686Z,1023.67
2016-12-31T02:05:40.689Z,1023.68
2016-12-31T02:06:40.749Z,1023.66
2016-12-31T02:07:41.003Z,1023.65
2016-12-31T02:08:40.791Z,1023.66
2016-12-31T02:09:40.829Z,1023.63
2016-12-31T02:10:40.756Z,1023.59
2016-12-31T02:11:40.647Z,1023.6
2016-12-31T02:12:40.609Z,1023.6
2016-12-31T02:13:40.635Z,1023.61
2016-12-31T02:14:40.721Z,1023.61
2016-12-31T02:15:40.799Z,1023.62
2016-12-31T02:16:40.999Z,1023.57
2016-12-31T02:17:40.688Z,1023.61
2016-12-31T02:18:40.814Z,1023.63
2016-12-31T02:19:40.696Z,1023.6
2016-12-31T02:20:40.720Z,1023.59
2016-12-31T02:21:40.783Z,1023.57
2016-12-31T02:22:40.733Z,1023.59
2016-12-31T02:23:40.625Z,1023.52
2016-12-31T02:24:40.780Z,1023.54
2016-12-31T02:25:40.781Z,1023.55
2016-12-31T02:26:40.964Z,1023.5
2016-12-31T02:27:40.991Z,1023.47
2016-12-31T02:28:40.836Z,1023.47
2016-12-31T02:29:40.790Z,1023.4
2016-12-31T02:30:40.997Z,1023.42
2016-12-31T02:31:41.069Z,1023.44
2016-12-31T02:32:40.858Z,1023.43
2016-12-31T02:33:41.335Z,1023.45
2016-12-31T02:34:41.111Z,1023.44
2016-12-31T02:35:41.136Z,1023.4
2016-12-31T02:36:40.881Z,1023.44
2016-12-31T02:37:41.217Z,1023.44
2016-12-31T02:38:41.101Z,1023.39
2016-12-31T02:39:40.847Z,1023.42
2016-12-31T02:40:41.244Z,1023.4
2016-12-31T02:41:41.206Z,1023.42
2016-12-31T02:42:41.292Z,1023.4
2016-12-31T02:43:40.878Z,1023.36
2016-12-31T02:44:41.150Z,1023.32
2016-12-31T02:45:40.934Z,1023.32
2016-12-31T02:46:41.392Z,1023.31
2016-12-31T02:47:41.272Z,1023.32
2016-12-31T02:48:40.970Z,1023.31
2016-12-31T02:49:40.947Z,1023.29
2016-12-31T02:50:40.940Z,1023.32
2016-12-31T02:51:41.102Z,1023.3
2016-12-31T02:52:41.009Z,1023.31
2016-12-31T02:53:40.979Z,1023.35
2016-12-31T02:54:41.103Z,1023.33
2016-12-31T02:55:41.347Z,1023.36
2016-12-31T02:56:41.455Z,1023.29
2016-12-31T02:57:41.458Z,1023.31
2016-12-31T02:58:41.208Z,1023.33
2016-12-31T02:59:41.301Z,1023.33
2016-12-31T03:00:41.369Z,1023.29
2016-12-31T03:01:40.976Z,1023.28
2016-12-31T03:02:41.237Z,1023.31
2016-12-31T03:03:41.224Z,1023.28
2016-12-31T03:04:41.179Z,1023.28
2016-12-31T03:05:41.107Z,1023.32
2016-12-31T03:06:41.311Z,1023.27
2016-12-31T03:07:41.166Z,1023.3
2016-12-31T03:08:41.239Z,1023.3
2016-12-31T03:09:41.172Z,1023.26
2016-12-31T03:10:41.163Z,1023.24
2016-12-31T03:11:41.110Z,1023.27
2016-12-31T03:12:41.552Z,1023.29
2016-12-31T03:13:41.335Z,1023.23
2016-12-31T03:14:41.277Z,1023.2
2016-12-31T03:15:41.279Z,1023.18
2016-12-31T03:16:41.135Z,1023.16
2016-12-31T03:17:41.139Z,1023.15
2016-12-31T03:18:41.319Z,1023.14
2016-12-31T03:19:41.402Z,1023.12
2016-12-31T03:20:41.496Z,1023.13
2016-12-31T03:21:41.243Z,1023.13
2016-12-31T03:22:41.472Z,1023.11
2016-12-31T03:23:41.450Z,1023.1
2016-12-31T03:24:41.408Z,1023.01
2016-12-31T03:25:41.535Z,1023.04
2016-12-31T03:26:41.274Z,1023.03
2016-12-31T03:27:41.439Z,1023.03
2016-12-31T03:28:41.355Z,1023.02
2016-12-31T03:29:41.908Z,1022.99
2016-12-31T03:30:41.359Z,1023.01
2016-12-31T03:31:41.403Z,1022.99
2016-12-31T03:32:41.573Z,1022.99
2016-12-31T03:33:41.373Z,1022.98
2016-12-31T03:34:41.842Z,1022.97
2016-12-31T03:35:41.661Z,1022.96
2016-12-31T03:36:41.413Z,1022.98
2016-12-31T03:37:41.613Z,1022.98
2016-12-31T03:38:41.501Z,1022.99
2016-12-31T03:39:41.814Z,1022.98
2016-12-31T03:40:41.533Z,1022.98
2016-12-31T03:41:41.466Z,1022.97
2016-12-31T03:42:41.876Z,1022.97
2016-12-31T03:43:41.617Z,1023
2016-12-31T03:44:41.530Z,1023.01
2016-12-31T03:45:41.569Z,1022.98
2016-12-31T03:46:41.471Z,1023
2016-12-31T03:47:41.451Z,1022.98
2016-12-31T03:48:41.786Z,1022.99
2016-12-31T03:49:41.525Z,1022.97
2016-12-31T03:50:41.626Z,1022.98
2016-12-31T03:51:41.779Z,1022.95
2016-12-31T03:52:41.689Z,1022.92
2016-12-31T03:53:42.056Z,1022.96
2016-12-31T03:54:41.493Z,1022.93
2016-12-31T03:55:41.726Z,1022.88
2016-12-31T03:56:41.645Z,1022.92
2016-12-31T03:57:41.852Z,1022.86
2016-12-31T03:58:41.836Z,1022.85
2016-12-31T03:59:41.649Z,1022.86
2016-12-31T04:00:41.929Z,1022.84
2016-12-31T04:01:41.574Z,1022.85
2016-12-31T04:02:41.617Z,1022.85
2016-12-31T04:03:41.743Z,1022.89
2016-12-31T04:04:41.623Z,1022.9
2016-12-31T04:05:41.723Z,1022.85
2016-12-31T04:06:41.757Z,1022.87
2016-12-31T04:07:41.785Z,1022.9
2016-12-31T04:08:41.945Z,1022.81
2016-12-31T04:09:41.760Z,1022.84
2016-12-31T04:10:41.836Z,1022.83
2016-12-31T04:11:41.891Z,1022.88
2016-12-31T04:12:41.714Z,1022.88
2016-12-31T04:13:41.707Z,1022.88
2016-12-31T04:14:41.687Z,1022.9
2016-12-31T04:15:41.836Z,1022.86
2016-12-31T04:16:42.367Z,1022.82
2016-12-31T04:17:42.009Z,1022.84
2016-12-31T04:18:42.007Z,1022.81
2016-12-31T04:19:42.031Z,1022.79
2016-12-31T04:20:41.918Z,1022.81
2016-12-31T04:21:41.810Z,1022.81
2016-12-31T04:22:41.882Z,1022.79
2016-12-31T04:23:41.962Z,1022.77
2016-12-31T04:24:41.912Z,1022.78
2016-12-31T04:25:41.961Z,1022.84
2016-12-31T04:26:42.123Z,1022.85
2016-12-31T04:27:42.078Z,1022.83
2016-12-31T04:28:42.370Z,1022.85
2016-12-31T04:29:42.539Z,1022.84
2016-12-31T04:30:41.944Z,1022.85
2016-12-31T04:31:41.851Z,1022.79
2016-12-31T04:32:41.999Z,1022.8
2016-12-31T04:33:42.127Z,1022.79
2016-12-31T04:34:42.044Z,1022.82
2016-12-31T04:35:42.085Z,1022.8
2016-12-31T04:36:42.084Z,1022.82
2016-12-31T04:37:42.021Z,1022.83
2016-12-31T04:38:42.007Z,1022.83
2016-12-31T04:39:42.244Z,1022.83
2016-12-31T04:40:42.164Z,1022.85
2016-12-31T04:41:42.199Z,1022.86
2016-12-31T04:42:42.136Z,1022.8
2016-12-31T04:43:42.023Z,1022.8
2016-12-31T04:44:41.982Z,1022.77
2016-12-31T04:45:42.427Z,1022.82
2016-12-31T04:46:41.974Z,1022.82
2016-12-31T04:47:42.339Z,1022.81
2016-12-31T04:48:42.164Z,1022.78
2016-12-31T04:49:42.125Z,1022.73
2016-12-31T04:50:42.102Z,1022.74
2016-12-31T04:51:42.101Z,1022.79
2016-12-31T04:52:42.134Z,1022.77
2016-12-31T04:53:42.510Z,1022.74
2016-12-31T04:54:42.431Z,1022.76
2016-12-31T04:55:42.174Z,1022.75
2016-12-31T04:56:42.190Z,1022.74
2016-12-31T04:57:42.264Z,1022.73
2016-12-31T04:58:42.241Z,1022.76
2016-12-31T04:59:42.216Z,1022.75
2016-12-31T05:00:42.145Z,1022.76
2016-12-31T05:01:42.331Z,1022.79
2016-12-31T05:02:42.205Z,1022.78
2016-12-31T05:03:42.306Z,1022.8
2016-12-31T05:04:42.381Z,1022.79
2016-12-31T05:05:42.264Z,1022.73
2016-12-31T05:06:42.253Z,1022.74
2016-12-31T05:07:42.629Z,1022.75
2016-12-31T05:08:42.278Z,1022.72
2016-12-31T05:09:42.476Z,1022.7
2016-12-31T05:10:42.332Z,1022.69
2016-12-31T05:11:42.261Z,1022.7
2016-12-31T05:12:42.267Z,1022.66
2016-12-31T05:13:42.294Z,1022.68
2016-12-31T05:14:42.325Z,1022.65
2016-12-31T05:15:42.311Z,1022.68
2016-12-31T05:16:42.356Z,1022.64
2016-12-31T05:17:42.589Z,1022.66
2016-12-31T05:18:43.005Z,1022.64
2016-12-31T05:19:42.458Z,1022.63
2016-12-31T05:20:42.707Z,1022.68
2016-12-31T05:21:42.764Z,1022.68
2016-12-31T05:22:43.292Z,1022.67
2016-12-31T05:23:42.917Z,1022.64
2016-12-31T05:24:43.502Z,1022.66
2016-12-31T05:25:42.566Z,1022.66
2016-12-31T05:26:43.070Z,1022.71
2016-12-31T05:27:42.625Z,1022.68
2016-12-31T05:28:42.719Z,1022.7
2016-12-31T05:29:42.846Z,1022.69
2016-12-31T05:30:43.104Z,1022.68
2016-12-31T05:31:43.040Z,1022.66
2016-12-31T05:32:42.622Z,1022.69
2016-12-31T05:33:42.859Z,1022.64
2016-12-31T05:34:44.146Z,1022.64
2016-12-31T05:35:43.021Z,1022.66
2016-12-31T05:36:42.775Z,1022.61
2016-12-31T05:37:43.406Z,1022.63
2016-12-31T05:38:42.869Z,1022.58
2016-12-31T05:39:42.820Z,1022.6
2016-12-31T05:40:42.619Z,1022.61
2016-12-31T05:41:42.538Z,1022.59
2016-12-31T05:42:43.067Z,1022.56
2016-12-31T05:43:43.429Z,1022.53
2016-12-31T05:44:42.531Z,1022.5
2016-12-31T05:45:43.036Z,1022.47
2016-12-31T05:46:43.600Z,1022.5
2016-12-31T05:47:42.988Z,1022.5
2016-12-31T05:48:42.894Z,1022.51
2016-12-31T05:49:42.665Z,1022.48
2016-12-31T05:50:43.609Z,1022.51
2016-12-31T05:51:42.940Z,1022.44
2016-12-31T05:52:43.089Z,1022.46
2016-12-31T05:53:43.171Z,1022.47
2016-12-31T05:54:43.319Z,1022.49
2016-12-31T05:55:42.748Z,1022.53
2016-12-31T05:56:43.355Z,1022.55
2016-12-31T05:57:43.032Z,1022.52
2016-12-31T05:58:43.317Z,1022.51
2016-12-31T05:59:42.758Z,1022.5
2016-12-31T06:00:43.118Z,1022.53
2016-12-31T06:01:43.897Z,1022.56
2016-12-31T06:02:43.188Z,1022.55
2016-12-31T06:03:43.397Z,1022.55
2016-12-31T06:04:43.851Z,1022.53
2016-12-31T06:05:43.386Z,1022.56
2016-12-31T06:06:43.295Z,1022.56
2016-12-31T06:07:43.070Z,1022.54
2016-12-31T06:08:43.071Z,1022.48
2016-12-31T06:09:43.135Z,1022.51
2016-12-31T06:10:43.043Z,1022.52
2016-12-31T06:11:44.130Z,1022.53
2016-12-31T06:12:44.180Z,1022.53
2016-12-31T06:13:43.205Z,1022.52
2016-12-31T06:14:43.581Z,1022.54
2016-12-31T06:15:43.479Z,1022.48
2016-12-31T06:16:43.181Z,1022.48
2016-12-31T06:17:43.167Z,1022.51
2016-12-31T06:18:43.307Z,1022.52
2016-12-31T06:19:43.578Z,1022.48
2016-12-31T06:20:43.097Z,1022.45
2016-12-31T06:21:43.905Z,1022.46
2016-12-31T06:22:43.136Z,1022.52
2016-12-31T06:23:43.459Z,1022.49
2016-12-31T06:24:43.056Z,1022.43
2016-12-31T06:25:43.251Z,1022.43
2016-12-31T06:26:44.091Z,1022.45
2016-12-31T06:27:43.837Z,1022.43
2016-12-31T06:28:43.043Z,1022.43
2016-12-31T06:29:43.735Z,1022.43
2016-12-31T06:30:43.267Z,1022.45
2016-12-31T06:31:43.232Z,1022.44
2016-12-31T06:32:42.965Z,1022.43
2016-12-31T06:33:43.280Z,1022.41
2016-12-31T06:34:43.707Z,1022.47
2016-12-31T06:35:43.543Z,1022.42
2016-12-31T06:36:43.090Z,1022.42
2016-12-31T06:37:43.462Z,1022.45
2016-12-31T06:38:43.327Z,1022.48
2016-12-31T06:39:43.689Z,1022.44
2016-12-31T06:40:43.018Z,1022.45
2016-12-31T06:41:43.159Z,1022.5
2016-12-31T06:42:43.003Z,1022.42
2016-12-31T06:43:43.171Z,1022.45
2016-12-31T06:44:43.276Z,1022.41
2016-12-31T06:45:43.355Z,1022.4
2016-12-31T06:46:43.468Z,1022.4
2016-12-31T06:47:43.591Z,1022.43
2016-12-31T06:48:43.430Z,1022.41
2016-12-31T06:49:43.086Z,1022.35
2016-12-31T06:50:43.465Z,1022.37
2016-12-31T06:51:43.433Z,1022.39
2016-12-31T06:52:43.514Z,1022.42
2016-12-31T06:53:43.606Z,1022.4
2016-12-31T06:54:43.204Z,1022.38
2016-12-31T06:55:43.584Z,1022.37
2016-12-31T06:56:43.897Z,1022.37
2016-12-31T06:57:43.291Z,1022.41
2016-12-31T06:58:43.348Z,1022.37
2016-12-31T06:59:43.801Z,1022.42
2016-12-31T07:00:43.262Z,1022.41
2016-12-31T07:01:43.757Z,1022.41
2016-12-31T07:02:43.610Z,1022.35
2016-12-31T07:03:43.343Z,1022.42
2016-12-31T07:04:43.788Z,1022.45
2016-12-31T07:05:43.928Z,1022.44
2016-12-31T07:06:43.785Z,1022.45
2016-12-31T07:07:44.106Z,1022.5
2016-12-31T07:08:43.648Z,1022.47
2016-12-31T07:09:43.812Z,1022.48
2016-12-31T07:10:43.950Z,1022.49
2016-12-31T07:11:43.516Z,1022.44
2016-12-31T07:12:43.566Z,1022.5
2016-12-31T07:13:43.577Z,1022.46
2016-12-31T07:14:43.354Z,1022.45
2016-12-31T07:15:43.517Z,1022.45
2016-12-31T07:16:43.528Z,1022.49
2016-12-31T07:17:43.990Z,1022.44
2016-12-31T07:18:43.655Z,1022.45
2016-12-31T07:19:44.189Z,1022.44
2016-12-31T07:20:43.572Z,1022.49
2016-12-31T07:21:43.372Z,1022.51
2016-12-31T07:22:43.598Z,1022.51
2016-12-31T07:23:43.474Z,1022.54
2016-12-31T07:24:43.421Z,1022.53
2016-12-31T07:25:43.429Z,1022.56
2016-12-31T07:26:43.577Z,1022.55
2016-12-31T07:27:43.520Z,1022.54
2016-12-31T07:28:43.505Z,1022.57
2016-12-31T07:29:43.511Z,1022.57
2016-12-31T07:30:43.588Z,1022.58
2016-12-31T07:31:43.693Z,1022.59
2016-12-31T07:32:43.854Z,1022.64
2016-12-31T07:33:43.672Z,1022.63
2016-12-31T07:34:43.628Z,1022.61
2016-12-31T07:35:43.497Z,1022.64
2016-12-31T07:36:44.118Z,1022.65
2016-12-31T07:37:43.618Z,1022.59
2016-12-31T07:38:43.655Z,1022.64
2016-12-31T07:39:43.846Z,1022.65
2016-12-31T07:40:43.679Z,1022.62
2016-12-31T07:41:43.616Z,1022.61
2016-12-31T07:42:43.829Z,1022.58
2016-12-31T07:43:43.624Z,1022.58
2016-12-31T07:44:44.387Z,1022.61
2016-12-31T07:45:43.815Z,1022.66
2016-12-31T07:46:44.218Z,1022.63
2016-12-31T07:47:44.069Z,1022.62
2016-12-31T07:48:43.904Z,1022.6
2016-12-31T07:49:43.734Z,1022.6
2016-12-31T07:50:44.132Z,1022.6
2016-12-31T07:51:44.251Z,1022.6
2016-12-31T07:52:44.093Z,1022.6
2016-12-31T07:53:43.767Z,1022.52
2016-12-31T07:54:44.040Z,1022.49
2016-12-31T07:55:43.918Z,1022.49
2016-12-31T07:56:44.500Z,1022.48
2016-12-31T07:57:44.003Z,1022.46
2016-12-31T07:58:43.971Z,1022.47
2016-12-31T07:59:43.700Z,1022.45
2016-12-31T08:00:43.797Z,1022.47
2016-12-31T08:01:44.052Z,1022.44
2016-12-31T08:02:44.070Z,1022.45
2016-12-31T08:03:44.252Z,1022.45
2016-12-31T08:04:43.962Z,1022.4
2016-12-31T08:05:43.949Z,1022.42
2016-12-31T08:06:44.011Z,1022.45
2016-12-31T08:07:44.155Z,1022.4
2016-12-31T08:08:44.008Z,1022.36
2016-12-31T08:09:43.985Z,1022.4
2016-12-31T08:10:44.078Z,1022.38
2016-12-31T08:11:44.054Z,1022.39
2016-12-31T08:12:43.981Z,1022.36
2016-12-31T08:13:44.779Z,1022.38
2016-12-31T08:14:44.074Z,1022.36
2016-12-31T08:15:43.881Z,1022.35
2016-12-31T08:16:44.065Z,1022.37
2016-12-31T08:17:43.987Z,1022.41
2016-12-31T08:18:44.008Z,1022.36
2016-12-31T08:19:44.049Z,1022.35
2016-12-31T08:20:44.059Z,1022.35
2016-12-31T08:21:43.992Z,1022.37
2016-12-31T08:22:43.998Z,1022.36
2016-12-31T08:23:44.266Z,1022.36
2016-12-31T08:24:44.119Z,1022.33
2016-12-31T08:25:44.067Z,1022.32
2016-12-31T08:26:44.170Z,1022.32
2016-12-31T08:27:44.341Z,1022.35
2016-12-31T08:28:43.988Z,1022.34
2016-12-31T08:29:44.043Z,1022.34
2016-12-31T08:30:44.347Z,1022.31
2016-12-31T08:31:44.147Z,1022.31
2016-12-31T08:32:44.229Z,1022.35
2016-12-31T08:33:44.297Z,1022.35
2016-12-31T08:34:44.278Z,1022.31
2016-12-31T08:35:44.295Z,1022.33
2016-12-31T08:36:44.272Z,1022.27
2016-12-31T08:37:44.395Z,1022.28
2016-12-31T08:38:44.172Z,1022.25
2016-12-31T08:39:44.238Z,1022.23
2016-12-31T08:40:44.454Z,1022.2
2016-12-31T08:41:44.226Z,1022.2
2016-12-31T08:42:44.178Z,1022.16
2016-12-31T08:43:44.242Z,1022.16
2016-12-31T08:44:44.297Z,1022.12
2016-12-31T08:45:44.266Z,1022.14
2016-12-31T08:46:44.349Z,1022.1
2016-12-31T08:47:44.438Z,1022.06
2016-12-31T08:48:44.424Z,1022.11
2016-12-31T08:49:44.308Z,1022.07
2016-12-31T08:50:44.650Z,1022.08
2016-12-31T08:51:44.351Z,1022.09
2016-12-31T08:52:44.384Z,1022.09
2016-12-31T08:53:44.450Z,1022.1
2016-12-31T08:54:44.462Z,1022.09
2016-12-31T08:55:44.598Z,1022.08
2016-12-31T08:56:44.534Z,1022.12
2016-12-31T08:57:44.312Z,1022.11
2016-12-31T08:58:44.640Z,1022.09
2016-12-31T08:59:44.653Z,1022.16
2016-12-31T09:00:44.543Z,1022.1
2016-12-31T09:01:44.944Z,1022.14
2016-12-31T09:02:44.588Z,1022.14
2016-12-31T09:03:44.576Z,1022.13
2016-12-31T09:04:44.562Z,1022.17
2016-12-31T09:05:44.526Z,1022.19
2016-12-31T09:06:44.627Z,1022.18
2016-12-31T09:07:44.544Z,1022.18
2016-12-31T09:08:44.494Z,1022.2
2016-12-31T09:09:44.514Z,1022.18
2016-12-31T09:10:44.581Z,1022.22
2016-12-31T09:11:44.526Z,1022.2
2016-12-31T09:12:44.504Z,1022.19
2016-12-31T09:13:44.505Z,1022.2
2016-12-31T09:14:44.536Z,1022.19
2016-12-31T09:15:44.710Z,1022.2
2016-12-31T09:16:44.720Z,1022.23
2016-12-31T09:17:44.843Z,1022.28
2016-12-31T09:18:44.575Z,1022.27
2016-12-31T09:19:44.602Z,1022.28
2016-12-31T09:20:44.934Z,1022.24
2016-12-31T09:21:44.723Z,1022.31
2016-12-31T09:22:44.694Z,1022.29
2016-12-31T09:23:44.925Z,1022.31
2016-12-31T09:24:44.911Z,1022.28
2016-12-31T09:25:44.993Z,1022.27
2016-12-31T09:26:44.764Z,1022.26
2016-12-31T09:27:44.728Z,1022.32
2016-12-31T09:28:44.755Z,1022.29
2016-12-31T09:29:44.701Z,1022.31
2016-12-31T09:30:44.843Z,1022.31
2016-12-31T09:31:45.313Z,1022.29
2016-12-31T09:32:44.760Z,1022.34
2016-12-31T09:33:44.902Z,1022.28
2016-12-31T09:34:45.094Z,1022.26
2016-12-31T09:35:44.813Z,1022.28
2016-12-31T09:36:45.168Z,1022.25
2016-12-31T09:37:44.831Z,1022.24
2016-12-31T09:38:44.884Z,1022.23
2016-12-31T09:39:45.024Z,1022.27
2016-12-31T09:40:45.002Z,1022.23
2016-12-31T09:41:44.968Z,1022.27
2016-12-31T09:42:44.901Z,1022.22
2016-12-31T09:43:45.084Z,1022.21
2016-12-31T09:44:45.177Z,1022.23
2016-12-31T09:45:45.146Z,1022.22
2016-12-31T09:46:45.075Z,1022.23
2016-12-31T09:47:45.251Z,1022.27
2016-12-31T09:48:44.933Z,1022.2
2016-12-31T09:49:45.050Z,1022.24
2016-12-31T09:50:44.926Z,1022.25
2016-12-31T09:51:45.033Z,1022.21
2016-12-31T09:52:45.037Z,1022.19
2016-12-31T09:53:45.257Z,1022.27
2016-12-31T09:54:45.006Z,1022.2
2016-12-31T09:55:45.035Z,1022.17
2016-12-31T09:56:44.973Z,1022.19
2016-12-31T09:57:45.114Z,1022.16
2016-12-31T09:58:45.532Z,1022.2
2016-12-31T09:59:45.359Z,1022.2
2016-12-31T10:00:45.161Z,1022.14
2016-12-31T10:01:45.380Z,1022.09
2016-12-31T10:02:45.019Z,1022.06
2016-12-31T10:03:44.974Z,1022.1
2016-12-31T10:04:45.069Z,1022.06
2016-12-31T10:05:45.234Z,1022.08
2016-12-31T10:06:45.134Z,1022.09
2016-12-31T10:07:45.442Z,1022.06
2016-12-31T10:08:45.119Z,1022.08
2016-12-31T10:09:45.069Z,1022.07
2016-12-31T10:10:45.399Z,1022.03
2016-12-31T10:11:45.268Z,1021.98
2016-12-31T10:12:45.377Z,1022.03
2016-12-31T10:13:45.301Z,1021.95
2016-12-31T10:14:45.397Z,1021.91
2016-12-31T10:15:45.338Z,1021.88
2016-12-31T10:16:45.248Z,1021.9
2016-12-31T10:17:45.365Z,1021.87
2016-12-31T10:18:45.365Z,1021.9
2016-12-31T10:19:45.428Z,1021.87
2016-12-31T10:20:45.741Z,1021.92
2016-12-31T10:21:45.266Z,1021.87
2016-12-31T10:22:45.412Z,1021.84
2016-12-31T10:23:45.518Z,1021.86
2016-12-31T10:24:45.670Z,1021.79
2016-12-31T10:25:45.350Z,1021.8
2016-12-31T10:26:45.470Z,1021.82
2016-12-31T10:27:45.424Z,1021.72
2016-12-31T10:28:45.566Z,1021.72
2016-12-31T10:29:45.680Z,1021.71
2016-12-31T10:30:45.395Z,1021.69
2016-12-31T10:31:45.338Z,1021.7
2016-12-31T10:32:45.624Z,1021.71
2016-12-31T10:33:45.409Z,1021.71
2016-12-31T10:34:45.390Z,1021.66
2016-12-31T10:35:45.553Z,1021.66
2016-12-31T10:36:46.086Z,1021.68
2016-12-31T10:37:45.606Z,1021.59
2016-12-31T10:38:45.564Z,1021.55
2016-12-31T10:39:45.702Z,1021.65
2016-12-31T10:40:45.626Z,1021.67
2016-12-31T10:41:45.608Z,1021.62
2016-12-31T10:42:45.524Z,1021.58
2016-12-31T10:43:45.458Z,1021.61
2016-12-31T10:44:45.488Z,1021.59
2016-12-31T10:45:45.739Z,1021.6
2016-12-31T10:46:45.601Z,1021.58
2016-12-31T10:47:45.746Z,1021.54
2016-12-31T10:48:45.778Z,1021.52
2016-12-31T10:49:45.833Z,1021.51
2016-12-31T10:50:45.638Z,1021.5
2016-12-31T10:51:45.759Z,1021.47
2016-12-31T10:52:45.707Z,1021.47
2016-12-31T10:53:45.642Z,1021.5
2016-12-31T10:54:45.631Z,1021.49
2016-12-31T10:55:45.624Z,1021.48
2016-12-31T10:56:45.673Z,1021.51
2016-12-31T10:57:45.741Z,1021.47
2016-12-31T10:58:45.979Z,1021.44
2016-12-31T10:59:45.930Z,1021.46
2016-12-31T11:00:45.829Z,1021.43
2016-12-31T11:01:45.733Z,1021.42
2016-12-31T11:02:45.762Z,1021.39
2016-12-31T11:03:45.913Z,1021.46
2016-12-31T11:04:45.734Z,1021.43
2016-12-31T11:05:46.089Z,1021.45
2016-12-31T11:06:45.819Z,1021.45
2016-12-31T11:07:46.008Z,1021.46
2016-12-31T11:08:45.755Z,1021.4
2016-12-31T11:09:45.809Z,1021.37
2016-12-31T11:10:46.310Z,1021.39
2016-12-31T11:11:46.247Z,1021.36
2016-12-31T11:12:45.886Z,1021.36
2016-12-31T11:13:45.995Z,1021.34
2016-12-31T11:14:45.971Z,1021.32
2016-12-31T11:15:45.960Z,1021.29
2016-12-31T11:16:45.836Z,1021.28
2016-12-31T11:17:46.130Z,1021.29
2016-12-31T11:18:46.033Z,1021.27
2016-12-31T11:19:45.873Z,1021.3
2016-12-31T11:20:46.229Z,1021.35
2016-12-31T11:21:46.230Z,1021.34
2016-12-31T11:22:46.106Z,1021.31
2016-12-31T11:23:45.971Z,1021.27
2016-12-31T11:24:45.911Z,1021.33
2016-12-31T11:25:46.264Z,1021.31
2016-12-31T11:26:46.088Z,1021.3
2016-12-31T11:27:46.095Z,1021.28
2016-12-31T11:28:46.127Z,1021.27
2016-12-31T11:29:46.171Z,1021.26
2016-12-31T11:30:46.364Z,1021.3
2016-12-31T11:31:46.331Z,1021.26
2016-12-31T11:32:46.142Z,1021.3
2016-12-31T11:33:46.508Z,1021.29
2016-12-31T11:34:46.071Z,1021.31
2016-12-31T11:35:46.359Z,1021.25
2016-12-31T11:36:46.164Z,1021.24
2016-12-31T11:37:46.094Z,1021.26
2016-12-31T11:38:46.146Z,1021.16
2016-12-31T11:39:46.241Z,1021.16
2016-12-31T11:40:46.136Z,1021.2
2016-12-31T11:41:46.391Z,1021.15
2016-12-31T11:42:46.185Z,1021.13
2016-12-31T11:43:46.210Z,1021.12
2016-12-31T11:44:46.471Z,1021.14
2016-12-31T11:45:46.299Z,1021.1
2016-12-31T11:46:46.434Z,1021.09
2016-12-31T11:47:46.246Z,1021.12
2016-12-31T11:48:46.647Z,1021.13
2016-12-31T11:49:46.648Z,1021.13
2016-12-31T11:50:46.553Z,1021.1
2016-12-31T11:51:46.608Z,1021.13
2016-12-31T11:52:46.483Z,1021.09
2016-12-31T11:53:46.388Z,1021.1
2016-12-31T11:54:46.322Z,1021.09
2016-12-31T11:55:46.638Z,1021.08
2016-12-31T11:56:46.550Z,1021.09
2016-12-31T11:57:46.348Z,1021.05
2016-12-31T11:58:46.633Z,1021.04
2016-12-31T11:59:46.480Z,1021.02
2016-12-31T12:00:46.576Z,1020.98
2016-12-31T12:01:46.386Z,1020.99
2016-12-31T12:02:46.701Z,1020.95
2016-12-31T12:03:46.686Z,1020.94
2016-12-31T12:04:46.733Z,1020.91
2016-12-31T12:05:46.578Z,1020.88
2016-12-31T12:06:46.787Z,1020.85
2016-12-31T12:07:46.562Z,1020.85
2016-12-31T12:08:46.554Z,1020.86